Time;durP1;ratioP1;P1;durP2;ratioP2;P2;SDS_P1;SDS_P2;PMS_P1;PMS_P2;Temp;Humidity;BMP_temperature;BMP_pressure;BME280_temperature;BME280_humidity;BME280_pressure;Samples;Min_cycle;Max_cycle;Signal;HPM_P1;HPM_P2
2022/07/25 00:00:08;;;;;;;13.43;10.52;;;;;;;23.06;72.88;92801.84;5049521;28;20090;-76
2022/07/25 00:02:34;;;;;;;18.08;11.13;;;;;;;23.05;72.66;92808.28;5031749;28;20411;-76
2022/07/25 00:04:59;;;;;;;15.68;10.57;;;;;;;23.05;72.75;92802.97;5049310;28;20025;-76
2022/07/25 00:07:26;;;;;;;18.85;11.63;;;;;;;23.05;72.76;92799.53;5030512;28;20083;-76
2022/07/25 00:09:51;;;;;;;16.80;11.23;;;;;;;23.04;72.57;92804.09;5048070;28;20045;-76
2022/07/25 00:12:17;;;;;;;17.55;10.38;;;;;;;23.03;72.59;92796.44;5049484;28;20078;-76
2022/07/25 00:14:43;;;;;;;14.98;10.60;;;;;;;23.02;72.66;92801.00;5049501;28;20029;-76
2022/07/25 00:17:09;;;;;;;18.20;10.75;;;;;;;23.03;72.19;92797.22;5049565;28;20048;-76
2022/07/25 00:19:34;;;;;;;15.45;10.18;;;;;;;23.02;72.72;92794.91;5044465;28;20033;-76
2022/07/25 00:22:00;;;;;;;15.43;9.98;;;;;;;23.00;72.82;92795.25;5053115;28;20285;-76
2022/07/25 00:24:25;;;;;;;15.75;10.10;;;;;;;23.00;72.71;92797.16;5035079;28;20414;-76
2022/07/25 00:26:51;;;;;;;15.43;10.00;;;;;;;23.00;72.68;92795.25;5052522;28;20037;-76
2022/07/25 00:29:16;;;;;;;17.98;9.70;;;;;;;23.02;72.41;92801.00;5033955;28;20040;-76
2022/07/25 00:31:42;;;;;;;16.95;10.30;;;;;;;23.03;72.16;92794.56;5035617;28;20041;-76
2022/07/25 00:34:08;;;;;;;14.15;10.23;;;;;;;23.04;71.97;92790.75;5035042;28;20049;-76
2022/07/25 00:36:33;;;;;;;11.75;9.23;;;;;;;23.05;72.18;92794.94;5035043;28;20072;-76
2022/07/25 00:38:59;;;;;;;16.60;10.27;;;;;;;23.07;72.04;92792.69;5050724;28;20029;-76
2022/07/25 00:41:25;;;;;;;20.73;10.20;;;;;;;23.10;72.39;92796.56;5052846;28;20056;-76
2022/07/25 00:43:50;;;;;;;15.75;10.55;;;;;;;23.10;72.10;92785.88;5050884;28;20029;-76
2022/07/25 00:46:16;;;;;;;16.73;10.48;;;;;;;23.12;72.27;92791.63;5034920;28;20474;-76
2022/07/25 00:48:43;;;;;;;17.20;10.60;;;;;;;23.13;72.52;92792.41;5033415;28;20067;-76
2022/07/25 00:51:09;;;;;;;16.73;11.35;;;;;;;23.14;72.57;92799.28;5032206;28;20041;-76
2022/07/25 00:53:36;;;;;;;16.40;11.18;;;;;;;23.14;72.43;92796.63;5052428;28;20056;-76
2022/07/25 00:56:02;;;;;;;14.95;10.98;;;;;;;23.13;72.76;92795.09;5034386;28;20041;-76
2022/07/25 00:58:28;;;;;;;17.75;10.52;;;;;;;23.11;72.76;92787.44;5034762;28;20037;-76
2022/07/25 01:00:54;;;;;;;16.85;10.60;;;;;;;23.10;73.42;92790.44;5032292;28;20067;-76
2022/07/25 01:03:19;;;;;;;15.00;10.18;;;;;;;23.07;73.69;92784.69;5030934;28;20068;-76
2022/07/25 01:05:45;;;;;;;16.00;11.35;;;;;;;23.06;73.66;92785.06;5033692;28;20055;-76
2022/07/25 01:08:11;;;;;;;14.52;10.93;;;;;;;23.02;73.74;92778.88;5017886;28;20045;-76
2022/07/25 01:10:38;;;;;;;13.15;10.93;;;;;;;22.99;74.37;92780.38;5030829;28;20034;-76
2022/07/25 01:13:04;;;;;;;14.73;11.25;;;;;;;22.95;74.16;92782.19;5032095;28;20431;-76
2022/07/25 01:15:30;;;;;;;15.93;11.40;;;;;;;22.92;74.07;92785.56;5014633;28;20069;-76
2022/07/25 01:17:55;;;;;;;17.40;11.02;;;;;;;22.87;74.50;92772.50;5031907;28;20399;-76
2022/07/25 01:20:22;;;;;;;16.25;10.98;;;;;;;22.86;74.46;92774.41;5032279;28;20041;-76
2022/07/25 01:22:48;;;;;;;14.35;11.27;;;;;;;22.85;74.12;92780.09;5035444;28;20575;-76
2022/07/25 01:25:15;;;;;;;15.88;10.63;;;;;;;22.82;74.23;92778.91;5038242;28;20041;-76
2022/07/25 01:27:41;;;;;;;14.50;11.05;;;;;;;22.81;74.24;92777.38;5051977;28;20532;-76
2022/07/25 01:30:09;;;;;;;16.08;11.20;;;;;;;22.81;74.25;92777.38;5016795;28;20135;-76
2022/07/25 01:32:35;;;;;;;13.43;11.27;;;;;;;22.81;74.36;92776.63;5032057;28;20114;-76
2022/07/25 01:35:01;;;;;;;14.70;11.60;;;;;;;22.80;74.21;92778.50;5032910;28;20025;-76
2022/07/25 01:37:27;;;;;;;15.38;11.98;;;;;;;22.79;75.04;92784.19;5048946;28;20395;-76
2022/07/25 01:39:52;;;;;;;16.00;12.23;;;;;;;22.78;75.09;92775.41;5051576;28;20047;-76
2022/07/25 01:42:18;;;;;;;19.10;12.07;;;;;;;22.76;75.72;92774.22;5013573;28;20035;-76
2022/07/25 01:44:44;;;;;;;16.10;11.15;;;;;;;22.75;76.11;92770.03;5048387;28;20041;-76
2022/07/25 01:47:09;;;;;;;15.07;12.30;;;;;;;22.73;75.70;92772.28;5031602;28;20055;-76
2022/07/25 01:49:35;;;;;;;16.67;12.07;;;;;;;22.71;75.64;92767.28;5051576;28;20491;-76
2022/07/25 01:52:00;;;;;;;19.27;11.70;;;;;;;22.71;75.53;92769.94;5051068;28;20554;-76
2022/07/25 01:54:26;;;;;;;15.75;12.27;;;;;;;22.72;75.84;92768.03;5049285;28;20304;-76
2022/07/25 01:56:52;;;;;;;15.07;11.68;;;;;;;22.73;75.39;92762.34;5017034;28;20071;-76
2022/07/25 01:59:17;;;;;;;16.17;12.00;;;;;;;22.74;75.69;92757.78;5032523;28;20041;-76
2022/07/25 02:01:43;;;;;;;19.95;12.10;;;;;;;22.75;75.44;92762.78;5033251;28;20033;-76
2022/07/25 02:04:09;;;;;;;19.42;11.80;;;;;;;22.77;75.46;92757.09;5031383;28;20079;-76
2022/07/25 02:06:34;;;;;;;15.30;11.57;;;;;;;22.77;75.69;92762.44;5032379;28;20123;-76
2022/07/25 02:09:01;;;;;;;16.55;12.48;;;;;;;22.77;75.77;92762.44;5033453;28;20255;-76
2022/07/25 02:11:26;;;;;;;17.45;11.68;;;;;;;22.77;75.54;92763.19;5033682;28;20569;-76
2022/07/25 02:13:52;;;;;;;15.88;12.38;;;;;;;22.78;75.62;92758.63;5044984;28;20112;-76
2022/07/25 02:16:18;;;;;;;18.88;11.90;;;;;;;22.77;75.79;92757.84;5027908;28;20415;-76
2022/07/25 02:18:44;;;;;;;15.60;12.25;;;;;;;22.76;76.33;92750.19;5050974;28;20025;-76
2022/07/25 02:21:10;;;;;;;16.95;11.68;;;;;;;22.76;75.77;92747.53;5032985;28;20061;-76
2022/07/25 02:23:36;;;;;;;15.48;12.20;;;;;;;22.76;75.67;92750.19;5015812;28;20075;-76
2022/07/25 02:26:03;;;;;;;19.10;11.65;;;;;;;22.75;75.80;92748.69;5012491;28;20033;-76
2022/07/25 02:28:28;;;;;;;19.13;11.88;;;;;;;22.75;75.32;92743.34;5017030;28;20064;-76
2022/07/25 02:30:54;;;;;;;14.23;11.38;;;;;;;22.75;75.55;92746.00;5032938;28;20726;-76
2022/07/25 02:33:20;;;;;;;16.42;11.73;;;;;;;22.74;75.61;92741.78;5032753;28;20035;-76
2022/07/25 02:35:45;;;;;;;15.25;11.75;;;;;;;22.74;75.53;92747.13;5037955;28;20037;-76
2022/07/25 02:38:18;;;;;;;19.42;12.38;;;;;;;22.70;75.50;92738.28;5050414;28;20045;-76
2022/07/25 02:40:48;;;;;;;15.85;11.73;;;;;;;22.74;75.13;92742.56;5032261;28;20136;-76
2022/07/25 02:43:14;;;;;;;18.27;11.80;;;;;;;22.73;75.23;92734.91;5050118;28;20068;-76
2022/07/25 02:45:39;;;;;;;14.77;11.55;;;;;;;22.73;76.33;92732.25;5050134;28;20510;-76
2022/07/25 02:48:05;;;;;;;15.50;11.90;;;;;;;22.72;76.15;92731.47;5031113;28;20513;-76
2022/07/25 02:50:30;;;;;;;15.07;11.63;;;;;;;22.70;76.10;92724.94;5032669;28;20060;-76
2022/07/25 02:52:56;;;;;;;19.92;12.00;;;;;;;22.69;75.90;92728.75;5050675;28;20060;-76
2022/07/25 02:55:22;;;;;;;17.90;11.82;;;;;;;22.66;75.82;92725.66;5031929;28;20025;-76
2022/07/25 02:57:48;;;;;;;16.45;12.45;;;;;;;22.66;76.16;92730.22;5032019;28;20402;-76
2022/07/25 03:00:14;;;;;;;18.77;11.57;;;;;;;22.64;76.14;92722.56;5033187;28;20048;-76
2022/07/25 03:02:40;;;;;;;15.40;11.40;;;;;;;22.63;76.00;92726.38;5049631;28;20547;-76
2022/07/25 03:05:10;;;;;;;18.85;11.68;;;;;;;22.62;75.79;92721.38;5050166;28;20021;-76
2022/07/25 03:07:36;;;;;;;15.43;11.82;;;;;;;22.62;75.70;92724.81;5031514;28;20083;-76
2022/07/25 03:10:04;;;;;;;17.95;11.57;;;;;;;22.61;75.96;92723.28;5032471;28;20465;-76
2022/07/25 03:12:31;;;;;;;18.83;12.43;;;;;;;22.61;76.02;92722.53;5050016;28;20086;-76
2022/07/25 03:14:57;;;;;;;16.17;11.85;;;;;;;22.57;75.79;92722.44;5032269;28;20052;-76
2022/07/25 03:17:23;;;;;;;18.08;12.35;;;;;;;22.55;76.06;92719.38;5048058;28;20490;-76
2022/07/25 03:19:49;;;;;;;18.45;12.85;;;;;;;22.52;76.23;92709.41;5032312;28;20029;-76
2022/07/25 03:22:14;;;;;;;17.95;12.73;;;;;;;22.50;76.13;92711.66;5032159;28;20045;-76
2022/07/25 03:24:40;;;;;;;19.70;12.10;;;;;;;22.48;75.89;92716.59;5050192;28;20065;-76
2022/07/25 03:27:05;;;;;;;14.13;11.50;;;;;;;22.46;75.73;92710.81;5030845;28;20132;-76
2022/07/25 03:29:31;;;;;;;20.98;11.85;;;;;;;22.43;75.88;92711.53;5012455;28;20402;-76
2022/07/25 03:31:58;;;;;;;15.48;11.63;;;;;;;22.41;75.80;92717.22;4996344;28;20503;-76
2022/07/25 03:34:24;;;;;;;16.98;11.15;;;;;;;22.40;76.21;92715.69;5029769;28;20030;-76
2022/07/25 03:36:49;;;;;;;18.08;12.13;;;;;;;22.36;77.04;92716.72;5030938;28;20049;-76
2022/07/25 03:39:15;;;;;;;15.43;11.25;;;;;;;22.34;76.80;92714.44;5031209;28;20029;-76
2022/07/25 03:41:40;;;;;;;16.10;11.73;;;;;;;22.31;76.71;92714.38;5015823;28;20498;-76
2022/07/25 03:44:06;;;;;;;15.90;12.63;;;;;;;22.29;76.57;92712.06;5028220;28;20103;-76
2022/07/25 03:46:32;;;;;;;18.63;12.00;;;;;;;22.29;76.67;92721.94;5012168;28;20034;-76
2022/07/25 03:48:57;;;;;;;16.73;12.90;;;;;;;22.24;76.72;92718.44;5026099;28;20029;-76
2022/07/25 03:51:23;;;;;;;15.95;11.63;;;;;;;22.24;76.52;92715.00;5029854;28;20048;-76
2022/07/25 03:54:00;;;;;;;16.85;11.63;;;;;;;22.23;76.98;92718.81;5052115;28;20045;-76
2022/07/25 03:56:27;;;;;;;18.88;12.43;;;;;;;22.22;77.27;92718.03;5053458;28;20379;-76
2022/07/25 03:58:53;;;;;;;20.50;12.82;;;;;;;22.20;77.46;92720.25;5033196;28;20033;-76
2022/07/25 04:01:19;;;;;;;16.38;12.30;;;;;;;22.16;77.44;92719.41;5053757;28;20044;-76
2022/07/25 04:03:45;;;;;;;19.30;13.07;;;;;;;22.15;77.62;92723.19;5035767;28;20041;-76
2022/07/25 04:06:10;;;;;;;19.67;12.90;;;;;;;22.12;78.19;92728.47;5016869;28;20047;-76
2022/07/25 04:08:36;;;;;;;15.88;12.63;;;;;;;22.09;78.52;92721.94;5050592;28;20045;-76
2022/07/25 04:11:01;;;;;;;15.60;13.25;;;;;;;22.07;78.58;92731.44;5047291;28;20041;-76
2022/07/25 04:13:27;;;;;;;17.80;12.98;;;;;;;22.06;78.79;92722.63;5052561;28;20078;-76
2022/07/25 04:15:52;;;;;;;17.35;12.50;;;;;;;22.07;78.58;92731.44;5052392;28;20043;-78
2022/07/25 04:18:18;;;;;;;18.55;13.18;;;;;;;22.07;78.54;92721.53;5050850;28;20045;-78
2022/07/25 04:20:43;;;;;;;19.83;12.77;;;;;;;22.09;78.43;92721.16;5048856;28;20261;-78
2022/07/25 04:23:09;;;;;;;19.15;12.77;;;;;;;22.11;77.77;92719.72;5032666;28;20044;-78
2022/07/25 04:25:36;;;;;;;15.18;12.45;;;;;;;22.12;77.56;92715.91;5052999;28;20037;-78
2022/07/25 04:28:02;;;;;;;15.88;12.32;;;;;;;22.15;77.70;92723.19;5043417;28;20030;-80
2022/07/25 04:30:27;;;;;;;16.35;12.05;;;;;;;22.18;77.66;92722.50;5046744;28;20036;-81
2022/07/25 04:32:53;;;;;;;19.80;12.57;;;;;;;22.22;77.73;92723.38;5034453;28;20053;-80
2022/07/25 04:35:19;;;;;;;20.10;12.57;;;;;;;22.24;78.47;92718.44;5034217;28;20033;-80
2022/07/25 04:37:45;;;;;;;19.67;12.70;;;;;;;22.24;78.82;92718.44;5052306;28;20051;-79
2022/07/25 04:40:11;;;;;;;16.08;12.18;;;;;;;22.28;78.47;92720.41;5020462;28;20049;-79
2022/07/25 04:42:36;;;;;;;18.67;12.68;;;;;;;22.29;78.48;92724.59;5003807;28;20037;-79
2022/07/25 04:45:03;;;;;;;16.40;12.18;;;;;;;22.31;78.43;92727.69;5055282;28;20318;-80
2022/07/25 04:47:29;;;;;;;19.05;13.40;;;;;;;22.34;78.33;92724.34;5054937;28;20079;-81
2022/07/25 04:49:54;;;;;;;17.00;12.63;;;;;;;22.37;78.27;92720.97;5034754;28;20041;-79
2022/07/25 04:52:20;;;;;;;18.65;13.07;;;;;;;22.41;78.76;92719.13;5047706;28;20037;-78
2022/07/25 04:54:46;;;;;;;19.17;13.15;;;;;;;22.44;79.23;92723.75;5036208;28;20128;-78
2022/07/25 04:57:11;;;;;;;15.75;12.68;;;;;;;22.49;79.22;92726.13;5020778;28;20032;-78
2022/07/25 04:59:37;;;;;;;20.02;13.63;;;;;;;22.54;79.45;92722.38;5053054;28;20374;-78
2022/07/25 05:02:03;;;;;;;20.35;12.98;;;;;;;22.62;79.12;92730.16;5054619;28;20138;-78
2022/07/25 05:04:28;;;;;;;22.50;13.40;;;;;;;22.70;78.75;92731.06;5038453;28;20099;-78
2022/07/25 05:06:54;;;;;;;17.73;13.18;;;;;;;22.76;78.66;92729.63;5038707;28;20051;-78
2022/07/25 05:09:19;;;;;;;15.30;13.15;;;;;;;22.82;78.85;92725.53;5038561;28;20052;-78
2022/07/25 05:11:45;;;;;;;15.77;13.40;;;;;;;22.89;78.67;92716.88;5038820;28;20035;-78
2022/07/25 05:14:10;;;;;;;17.90;13.02;;;;;;;23.00;78.64;92722.41;5055383;28;20045;-78
2022/07/25 05:16:36;;;;;;;14.95;12.60;;;;;;;23.05;76.82;92714.84;5050807;28;20068;-78
2022/07/25 05:19:02;;;;;;;16.65;13.40;;;;;;;23.17;77.06;92718.47;5051968;28;20101;-78
2022/07/25 05:21:27;;;;;;;17.85;13.38;;;;;;;23.23;76.89;92719.69;5014582;28;20152;-83
2022/07/25 05:23:53;;;;;;;19.17;14.20;;;;;;;23.30;77.43;92719.81;5027587;28;20074;-80
2022/07/25 05:26:18;;;;;;;16.27;13.60;;;;;;;23.37;77.43;92714.59;5049614;28;20026;-81
2022/07/25 05:28:44;;;;;;;18.05;13.43;;;;;;;23.49;77.03;92722.38;5039314;28;20041;-81
2022/07/25 05:31:09;;;;;;;19.83;13.23;;;;;;;23.64;76.88;92730.56;5037445;28;20033;-81
2022/07/25 05:33:35;;;;;;;20.42;13.43;;;;;;;23.74;76.85;92735.28;5030348;28;20065;-81
2022/07/25 05:36:02;;;;;;;16.83;13.35;;;;;;;23.78;76.61;92730.81;5036383;28;20045;-81
2022/07/25 05:38:28;;;;;;;17.65;13.55;;;;;;;23.82;76.69;92736.97;5018076;28;20041;-80
2022/07/25 05:40:54;;;;;;;18.95;13.70;;;;;;;23.84;76.26;92731.25;5036947;28;20041;-81
2022/07/25 05:43:20;;;;;;;17.48;13.38;;;;;;;23.85;75.04;92732.78;5036273;28;20519;-82
2022/07/25 05:45:48;;;;;;;18.30;13.05;;;;;;;23.87;75.39;92735.88;5022452;28;20072;-80
2022/07/25 05:48:14;;;;;;;16.40;13.88;;;;;;;23.87;75.30;92731.28;5034146;28;20036;-82
2022/07/25 05:50:40;;;;;;;17.25;13.07;;;;;;;23.86;75.69;92734.31;5036354;28;20125;-80
2022/07/25 05:53:06;;;;;;;18.35;13.40;;;;;;;23.85;76.17;92738.91;5002614;28;20103;-81
2022/07/25 05:55:32;;;;;;;18.85;13.60;;;;;;;23.86;75.89;92739.66;5019258;28;20041;-80
2022/07/25 05:57:57;;;;;;;16.52;13.02;;;;;;;23.86;76.10;92743.09;5018724;28;20045;-81
2022/07/25 06:00:23;;;;;;;17.90;13.93;;;;;;;23.88;76.37;92740.84;5018320;28;20097;-81
2022/07/25 06:02:49;;;;;;;16.60;13.65;;;;;;;23.88;76.81;92743.50;5019348;28;20025;-81
2022/07/25 06:05:15;;;;;;;20.45;12.98;;;;;;;23.90;76.70;92743.91;5045864;28;20021;-80
2022/07/25 06:07:40;;;;;;;20.48;14.02;;;;;;;23.90;77.36;92743.91;5024807;28;20033;-81
2022/07/25 06:10:06;;;;;;;17.02;13.80;;;;;;;23.90;77.50;92746.59;5055627;28;20036;-82
2022/07/25 06:12:32;;;;;;;20.30;13.80;;;;;;;23.95;78.49;92742.06;5054840;28;20037;-81
2022/07/25 06:14:59;;;;;;;20.67;14.00;;;;;;;23.97;79.38;92747.81;5049985;28;20505;-81
2022/07/25 06:17:25;;;;;;;19.92;13.90;;;;;;;23.98;79.68;92742.13;5053565;28;20037;-81
2022/07/25 06:19:50;;;;;;;18.95;13.85;;;;;;;23.98;79.52;92746.69;5047508;28;20070;-81
2022/07/25 06:22:16;;;;;;;19.85;13.70;;;;;;;24.03;78.36;92746.38;5038158;28;20032;-81
2022/07/25 06:24:41;;;;;;;18.75;14.20;;;;;;;24.07;78.63;92744.50;5038132;28;20059;-81
2022/07/25 06:27:07;;;;;;;17.40;13.93;;;;;;;24.17;78.50;92738.50;5029151;28;20040;-81
2022/07/25 06:29:33;;;;;;;18.23;13.77;;;;;;;24.31;77.96;92741.34;5035826;28;20052;-81
2022/07/25 06:31:59;;;;;;;17.77;14.40;;;;;;;24.43;74.78;92748.38;5021410;28;20037;-81
2022/07/25 06:34:24;;;;;;;19.98;14.02;;;;;;;24.55;75.67;92746.59;5053655;28;20100;-81
2022/07/25 06:36:50;;;;;;;22.92;13.90;;;;;;;24.89;72.76;92745.38;5052210;28;20082;-80
2022/07/25 06:39:15;;;;;;;19.50;12.95;;;;;;;25.65;71.71;92743.28;5036110;28;20502;-81
2022/07/25 06:41:41;;;;;;;20.40;13.48;;;;;;;26.34;67.37;92745.91;5023706;28;20041;-81
2022/07/25 06:44:06;;;;;;;19.27;12.90;;;;;;;26.67;63.89;92744.09;5047940;28;20029;-81
2022/07/25 06:46:32;;;;;;;22.70;13.25;;;;;;;26.35;66.72;92750.13;5037719;28;20116;-81
2022/07/25 06:48:58;;;;;;;21.23;12.38;;;;;;;26.35;68.21;92742.06;5036779;28;20033;-81
2022/07/25 06:51:24;;;;;;;21.33;13.20;;;;;;;26.15;69.55;92740.84;5037550;28;20051;-81
2022/07/25 06:53:50;;;;;;;20.70;12.77;;;;;;;26.11;68.85;92740.06;5034809;28;20053;-81
2022/07/25 06:56:15;;;;;;;16.30;13.07;;;;;;;26.13;70.02;92741.22;5033539;28;20097;-81
2022/07/25 06:58:41;;;;;;;18.40;13.40;;;;;;;26.09;70.01;92737.75;5022618;28;20077;-81
2022/07/25 07:01:06;;;;;;;17.25;13.02;;;;;;;25.99;67.54;92740.41;5014429;28;20065;-81
2022/07/25 07:03:36;;;;;;;18.40;12.80;;;;;;;26.09;64.69;92743.13;5015403;28;20127;-81
2022/07/25 07:06:06;;;;;;;19.73;13.55;;;;;;;26.42;63.24;92744.00;5016037;28;20072;-80
2022/07/25 07:08:32;;;;;;;16.83;12.13;;;;;;;26.56;60.70;92741.38;5021990;28;20038;-80
2022/07/25 07:10:58;;;;;;;32.00;12.82;;;;;;;26.77;57.67;92754.09;5004740;28;20030;-81
2022/07/25 07:13:24;;;;;;;19.88;10.85;;;;;;;26.78;58.03;92738.75;5020162;28;20056;-81
2022/07/25 07:15:50;;;;;;;20.00;11.05;;;;;;;27.08;56.59;92746.44;5027982;28;20041;-79
2022/07/25 07:18:17;;;;;;;17.05;11.30;;;;;;;27.19;56.67;92741.06;5015402;28;20160;-79
2022/07/25 07:20:43;;;;;;;14.68;11.27;;;;;;;27.37;56.83;92746.47;5029565;28;20037;-80
2022/07/25 07:23:09;;;;;;;14.90;10.70;;;;;;;27.60;57.58;92749.50;5032047;28;20025;-79
2022/07/25 07:25:34;;;;;;;15.30;10.98;;;;;;;27.58;58.65;92756.41;5032585;28;20034;-79
2022/07/25 07:28:00;;;;;;;15.77;12.27;;;;;;;27.35;60.46;92751.47;5034415;28;20034;-80
2022/07/25 07:30:25;;;;;;;20.98;12.85;;;;;;;27.24;58.88;92756.81;5035807;28;20054;-79
2022/07/25 07:32:51;;;;;;;15.35;10.75;;;;;;;27.18;55.56;92753.75;5036720;28;20082;-79
2022/07/25 07:35:18;;;;;;;16.55;12.10;;;;;;;27.32;57.68;92754.94;5030963;28;20033;-81
2022/07/25 07:37:45;;;;;;;16.13;11.25;;;;;;;27.51;58.58;92749.13;5025252;28;20038;-81
2022/07/25 07:40:12;;;;;;;15.23;10.18;;;;;;;27.57;54.14;92742.22;5026037;28;20550;-81
2022/07/25 07:42:43;;;;;;;14.27;10.35;;;;;;;27.82;53.15;92750.22;5025446;28;20025;-81
2022/07/25 07:45:20;;;;;;;20.15;10.52;;;;;;;28.17;55.94;92742.47;5032653;28;20030;-81
2022/07/25 07:47:47;;;;;;;17.25;11.30;;;;;;;28.07;57.10;92743.28;5037300;28;20034;-79
2022/07/25 07:50:15;;;;;;;16.48;12.80;;;;;;;27.91;60.29;92747.16;5033303;28;20395;-78
2022/07/25 07:52:41;;;;;;;15.00;12.18;;;;;;;27.72;61.54;92745.66;5034929;28;20098;-78
2022/07/25 07:57:52;;;;;;;16.40;12.77;;;;;;;27.60;63.29;92744.13;5017084;28;20041;-78
2022/07/25 08:00:19;;;;;;;21.27;12.70;;;;;;;27.80;61.35;92741.00;5017780;28;20029;-78
2022/07/25 08:02:51;;;;;;;18.90;13.32;;;;;;;27.77;61.89;92741.81;5054266;28;20123;-78
2022/07/25 08:05:22;;;;;;;18.17;14.77;;;;;;;27.75;61.81;92733.34;5035623;28;20136;-78
2022/07/25 08:07:50;;;;;;;16.60;13.30;;;;;;;27.75;61.35;92736.03;5035178;28;20044;-81
2022/07/25 08:10:38;;;;;;;21.23;14.18;;;;;;;27.93;60.00;92738.72;5035230;28;20048;-78
2022/07/25 08:13:21;;;;;;;20.20;13.90;;;;;;;27.85;60.71;92732.56;5043839;28;20406;-78
2022/07/25 08:15:50;;;;;;;21.55;13.20;;;;;;;27.89;61.17;92733.34;5034111;28;20041;-77
2022/07/25 08:18:15;;;;;;;15.80;12.25;;;;;;;27.83;61.29;92734.84;5034694;28;20064;-77
2022/07/25 08:20:41;;;;;;;17.85;12.63;;;;;;;27.70;57.27;92731.06;5035409;28;20454;-77
2022/07/25 08:23:09;;;;;;;19.00;13.25;;;;;;;27.87;60.25;92734.88;5021930;28;20041;-77
2022/07/25 08:25:35;;;;;;;15.15;12.25;;;;;;;27.95;59.03;92734.47;5016213;28;20558;-77
2022/07/25 08:28:02;;;;;;;16.42;12.77;;;;;;;27.91;59.96;92733.72;5034004;28;20065;-77
2022/07/25 08:30:27;;;;;;;21.55;12.40;;;;;;;27.79;59.97;92729.50;5016217;28;20064;-77
2022/07/25 08:32:56;;;;;;;19.60;12.80;;;;;;;28.05;58.71;92730.19;5017706;28;20029;-77
2022/07/25 08:35:24;;;;;;;19.52;12.82;;;;;;;28.10;56.19;92731.72;5034963;28;20033;-77
2022/07/25 08:37:51;;;;;;;20.10;12.00;;;;;;;28.14;56.05;92732.47;5035149;28;20021;-77
2022/07/25 08:40:19;;;;;;;16.80;12.27;;;;;;;28.05;57.18;92735.59;5035043;28;20482;-77
2022/07/25 08:42:45;;;;;;;19.20;12.98;;;;;;;28.06;56.62;92741.75;5029314;28;20037;-76
2022/07/25 08:45:12;;;;;;;17.40;12.88;;;;;;;28.19;54.33;92734.75;5015936;28;20026;-77
2022/07/25 08:47:39;;;;;;;14.65;11.95;;;;;;;28.14;56.35;92743.25;5033167;28;20037;-77
2022/07/25 08:50:07;;;;;;;17.25;13.40;;;;;;;27.79;55.93;92740.25;5015501;28;20049;-77
2022/07/25 08:52:34;;;;;;;19.50;11.75;;;;;;;27.99;54.78;92737.91;5020827;28;20027;-77
2022/07/25 08:55:05;;;;;;;15.52;10.82;;;;;;;28.15;52.85;92737.47;5046347;28;20115;-77
2022/07/25 08:57:31;;;;;;;16.80;12.13;;;;;;;28.25;55.73;92738.59;5015332;28;20052;-77
2022/07/25 08:59:59;;;;;;;13.65;10.15;;;;;;;28.34;54.47;92738.91;5032831;28;20053;-77
2022/07/25 09:02:26;;;;;;;16.30;10.57;;;;;;;28.47;52.95;92738.50;5034064;28;20041;-79
2022/07/25 09:04:52;;;;;;;16.77;11.00;;;;;;;28.35;54.30;92740.47;5038727;28;20466;-78
2022/07/25 09:07:32;;;;;;;16.42;10.00;;;;;;;28.10;53.26;92731.72;5052351;28;20552;-76
2022/07/25 09:09:59;;;;;;;16.73;10.40;;;;;;;28.11;53.58;92727.88;5053111;28;20490;-77
2022/07/25 09:12:26;;;;;;;16.83;10.43;;;;;;;28.38;54.83;92737.00;5054040;28;20437;-78
2022/07/25 09:14:53;;;;;;;14.18;9.88;;;;;;;28.70;52.34;92725.28;5048328;28;20045;-76
2022/07/25 09:17:18;;;;;;;15.55;9.73;;;;;;;28.80;51.66;92724.47;5052597;28;20032;-76
2022/07/25 09:19:52;;;;;;;17.00;10.63;;;;;;;28.73;52.58;92729.91;5034948;28;20501;-76
2022/07/25 09:22:17;;;;;;;59.15;13.77;;;;;;;28.82;51.35;92727.53;5052299;28;20033;-76
2022/07/25 09:24:44;;;;;;;16.73;9.93;;;;;;;28.90;50.83;92722.84;5050673;28;20047;-76
2022/07/25 09:27:10;;;;;;;12.35;9.07;;;;;;;28.97;48.88;92728.19;5032308;28;20041;-77
2022/07/25 09:29:38;;;;;;;14.07;9.50;;;;;;;28.78;49.96;92726.78;5022702;28;20262;-76
2022/07/25 09:32:21;;;;;;;13.10;9.18;;;;;;;28.91;48.89;92721.72;5034492;28;20027;-76
2022/07/25 09:34:48;;;;;;;19.20;10.43;;;;;;;29.02;47.17;92717.00;5035618;28;20037;-78
2022/07/25 09:37:24;;;;;;;12.50;8.18;;;;;;;29.08;46.29;92727.34;5033190;28;20044;-77
2022/07/25 09:39:50;;;;;;;12.35;9.27;;;;;;;29.19;46.58;92728.06;5051985;28;20041;-78
2022/07/25 09:42:24;;;;;;;13.57;8.48;;;;;;;29.09;44.09;92724.28;5034620;28;20028;-77
2022/07/25 09:45:16;;;;;;;16.95;8.30;;;;;;;29.22;44.77;92721.88;5049108;28;20510;-77
2022/07/25 09:48:02;;;;;;;11.13;8.85;;;;;;;29.35;45.57;92724.84;5018632;28;20048;-76
2022/07/25 09:50:30;;;;;;;11.93;8.27;;;;;;;29.31;42.42;92718.72;5049261;28;20037;-76
2022/07/25 09:52:59;;;;;;;12.60;8.10;;;;;;;29.34;43.11;92718.69;5051056;28;20029;-77
2022/07/25 09:55:25;;;;;;;11.40;7.93;;;;;;;29.45;40.93;92711.28;5046197;28;20057;-78
2022/07/25 09:57:54;;;;;;;14.32;8.25;;;;;;;29.44;44.25;92711.66;5027282;28;20514;-77
2022/07/25 10:00:23;;;;;;;10.90;8.02;;;;;;;29.41;43.68;92710.53;5017416;28;20029;-77
2022/07/25 10:03:19;;;;;;;12.18;7.63;;;;;;;29.59;43.98;92712.31;5052059;28;20032;-77
2022/07/25 10:06:04;;;;;;;11.65;8.82;;;;;;;29.53;44.34;92709.28;5051207;28;20040;-78
2022/07/25 10:08:34;;;;;;;12.93;7.88;;;;;;;29.60;42.55;92705.75;5032369;28;20050;-77
2022/07/25 10:11:00;;;;;;;13.87;8.13;;;;;;;29.50;42.82;92706.59;5037340;28;20037;-78
2022/07/25 10:13:34;;;;;;;17.70;8.30;;;;;;;29.27;41.39;92711.44;5039519;28;20091;-78
2022/07/25 10:16:00;;;;;;;13.10;8.02;;;;;;;29.45;41.86;92707.78;5051869;28;20288;-79
2022/07/25 10:18:28;;;;;;;14.82;8.60;;;;;;;29.37;42.01;92692.88;5046889;28;20081;-81
2022/07/25 10:21:08;;;;;;;13.10;8.50;;;;;;;29.58;43.44;92691.88;5039058;28;20117;-78
2022/07/25 10:23:33;;;;;;;11.05;7.88;;;;;;;29.56;42.22;92683.44;5014917;28;20033;-78
2022/07/25 10:26:14;;;;;;;12.13;7.32;;;;;;;29.70;43.43;92693.31;5025012;28;20063;-77
2022/07/25 10:28:41;;;;;;;10.82;8.18;;;;;;;29.75;42.70;92692.91;5032134;28;20090;-77
2022/07/25 10:31:32;;;;;;;12.98;8.40;;;;;;;29.82;41.43;92687.44;5048345;28;20029;-77
2022/07/25 10:34:04;;;;;;;12.30;7.95;;;;;;;30.07;41.66;92682.50;5019690;28;20049;-77
2022/07/25 10:36:41;;;;;;;18.05;8.32;;;;;;;30.10;41.04;92680.91;5045213;28;20051;-77
2022/07/25 10:39:10;;;;;;;11.07;7.53;;;;;;;30.11;41.32;92677.06;5030674;28;20040;-77
2022/07/25 10:41:41;;;;;;;11.82;8.25;;;;;;;30.03;41.80;92668.28;5033413;28;20115;-77
2022/07/25 10:44:14;;;;;;;11.55;8.23;;;;;;;29.97;41.64;92674.53;5016458;28;20033;-77
2022/07/25 10:46:43;;;;;;;14.25;8.80;;;;;;;30.08;41.39;92673.25;5031189;28;20124;-78
2022/07/25 10:49:16;;;;;;;11.68;8.13;;;;;;;30.37;43.28;92667.47;5031976;28;20068;-77
2022/07/25 10:52:00;;;;;;;16.77;8.40;;;;;;;30.25;41.70;92666.06;5051310;28;20064;-76
2022/07/25 10:54:37;;;;;;;12.98;8.77;;;;;;;30.17;40.89;92663.88;5050290;28;20041;-77
2022/07/25 10:57:05;;;;;;;11.75;8.70;;;;;;;30.22;42.86;92663.44;5023870;28;20076;-76
2022/07/25 10:59:38;;;;;;;13.65;8.90;;;;;;;30.32;42.53;92659.09;5049531;28;20502;-78
2022/07/25 11:02:07;;;;;;;16.48;8.18;;;;;;;30.35;42.83;92658.25;5020507;28;20037;-77
2022/07/25 11:04:33;;;;;;;20.55;9.57;;;;;;;30.22;44.18;92655.34;5050816;28;20368;-77
2022/07/25 11:07:34;;;;;;;13.15;9.32;;;;;;;30.31;43.30;92652.94;5027992;28;20124;-77
2022/07/25 11:10:03;;;;;;;15.23;9.10;;;;;;;30.62;43.07;92655.56;5022402;28;20052;-77
2022/07/25 11:12:29;;;;;;;14.55;8.40;;;;;;;30.73;43.21;92645.34;5045440;28;20030;-77
2022/07/25 11:15:00;;;;;;;10.90;8.40;;;;;;;30.89;43.92;92648.25;5048246;28;20038;-77
2022/07/25 11:17:26;;;;;;;18.35;9.43;;;;;;;30.68;41.97;92637.72;5033293;28;20483;-78
2022/07/25 11:20:00;;;;;;;12.38;8.90;;;;;;;30.22;43.35;92648.00;5051105;28;20037;-77
2022/07/25 11:22:26;;;;;;;11.43;8.52;;;;;;;30.05;44.57;92641.66;5046902;28;20040;-78